createdAt,value
2023-02-19T00:00:29.669Z,7.39
2023-02-19T00:02:56.771Z,7.69
2023-02-19T00:05:23.976Z,7.64
2023-02-19T00:07:50.672Z,7.43
2023-02-19T00:10:17.813Z,7.13
2023-02-19T00:12:45.073Z,7.37
2023-02-19T00:15:11.763Z,7.60
2023-02-19T00:17:38.846Z,7.90
2023-02-19T00:20:05.817Z,7.85
2023-02-19T00:22:32.578Z,7.98
2023-02-19T00:24:59.292Z,7.79
2023-02-19T00:27:25.987Z,7.82
2023-02-19T00:29:53.154Z,8.11
2023-02-19T00:32:19.851Z,7.87
2023-02-19T00:34:46.542Z,7.80
2023-02-19T00:37:13.229Z,8.10
2023-02-19T00:39:39.952Z,8.50
2023-02-19T00:42:07.235Z,7.91
2023-02-19T00:44:34.236Z,8.20
2023-02-19T00:47:00.930Z,7.82
2023-02-19T00:49:29.494Z,8.11
2023-02-19T00:51:56.214Z,7.80
2023-02-19T00:54:23.047Z,7.96
2023-02-19T00:56:49.902Z,8.18
2023-02-19T00:59:16.651Z,8.16
2023-02-19T01:01:43.668Z,7.89
2023-02-19T01:04:10.430Z,7.97
2023-02-19T01:06:37.549Z,7.68
2023-02-19T01:09:05.258Z,7.86
2023-02-19T01:11:32.341Z,7.68
2023-02-19T01:13:59.748Z,7.83
2023-02-19T01:16:26.826Z,8.16
2023-02-19T01:18:53.880Z,8.12
2023-02-19T01:21:22.397Z,8.22
2023-02-19T01:23:52.004Z,8.17
2023-02-19T01:26:40.444Z,7.80
2023-02-19T01:29:07.164Z,7.86
2023-02-19T01:31:34.387Z,7.72
2023-02-19T01:34:03.027Z,7.84
2023-02-19T01:36:30.677Z,8.26
2023-02-19T01:38:59.762Z,8.39
2023-02-19T01:41:26.503Z,8.66
2023-02-19T01:44:00.574Z,8.54
2023-02-19T01:46:32.621Z,9.01
2023-02-19T01:49:02.609Z,8.59
2023-02-19T01:51:29.366Z,8.66
2023-02-19T01:53:57.299Z,8.34
2023-02-19T01:56:24.494Z,8.54
2023-02-19T01:58:53.468Z,8.27
2023-02-19T02:01:20.236Z,8.80
2023-02-19T02:03:47.302Z,8.87
2023-02-19T02:06:22.021Z,8.27
2023-02-19T02:08:51.756Z,8.33
2023-02-19T02:11:18.822Z,8.72
2023-02-19T02:13:48.573Z,8.62
2023-02-19T02:16:42.126Z,9.02
2023-02-19T02:19:21.079Z,8.79
2023-02-19T02:22:01.697Z,9.16
2023-02-19T02:25:19.541Z,8.72
2023-02-19T02:28:14.080Z,8.51
2023-02-19T02:30:52.515Z,9.01
2023-02-19T02:33:42.266Z,9.06
2023-02-19T02:36:13.163Z,8.93
2023-02-19T02:38:41.885Z,9.88
2023-02-19T02:41:09.117Z,10.27
2023-02-19T02:43:37.538Z,10.30
2023-02-19T02:46:04.279Z,10.14
2023-02-19T02:48:49.067Z,9.91
2023-02-19T02:51:33.580Z,10.40
2023-02-19T02:54:15.070Z,10.19
2023-02-19T02:56:41.861Z,10.38
2023-02-19T02:59:09.861Z,11.37
2023-02-19T03:02:04.444Z,13.02
2023-02-19T03:04:53.914Z,10.66
2023-02-19T03:07:20.638Z,10.77
2023-02-19T03:09:49.688Z,10.68
2023-02-19T03:12:16.445Z,11.06
2023-02-19T03:14:48.442Z,11.29
2023-02-19T03:17:27.612Z,10.44
2023-02-19T03:19:56.222Z,11.06
2023-02-19T03:22:30.280Z,10.87
2023-02-19T03:25:21.982Z,10.73
2023-02-19T03:27:49.190Z,10.69
2023-02-19T03:30:21.113Z,11.50
2023-02-19T03:33:05.984Z,11.49
2023-02-19T03:35:33.326Z,12.29
2023-02-19T03:38:30.303Z,12.31
2023-02-19T03:41:02.950Z,12.11
2023-02-19T03:43:46.762Z,12.16
2023-02-19T03:46:26.318Z,11.79
2023-02-19T03:48:58.979Z,12.02
2023-02-19T03:51:39.184Z,11.56
2023-02-19T03:54:13.657Z,11.93
2023-02-19T03:56:52.298Z,12.07
2023-02-19T03:59:47.389Z,12.37
2023-02-19T04:02:16.499Z,12.07
2023-02-19T04:04:50.156Z,11.90
2023-02-19T04:07:16.891Z,12.14
2023-02-19T04:09:45.534Z,12.04
2023-02-19T04:12:12.229Z,11.36
2023-02-19T04:15:03.453Z,11.17
2023-02-19T04:17:36.058Z,11.42
2023-02-19T04:20:03.928Z,10.86
2023-02-19T04:22:30.673Z,10.96
2023-02-19T04:25:00.383Z,10.51
2023-02-19T04:27:27.071Z,10.39
2023-02-19T04:29:54.135Z,9.84
2023-02-19T04:32:20.860Z,9.44
2023-02-19T04:34:47.554Z,9.22
2023-02-19T04:37:14.293Z,9.28
2023-02-19T04:39:40.989Z,8.87
2023-02-19T04:42:07.836Z,8.44
2023-02-19T04:44:35.212Z,8.47
2023-02-19T04:47:02.094Z,7.95
2023-02-19T04:49:29.443Z,7.72
2023-02-19T04:51:56.141Z,7.53
2023-02-19T04:54:23.953Z,6.88
2023-02-19T04:56:50.666Z,7.01
2023-02-19T04:59:17.368Z,7.00
2023-02-19T05:01:45.169Z,6.42
2023-02-19T05:04:11.904Z,6.42
2023-02-19T05:06:41.660Z,6.15
2023-02-19T05:09:08.669Z,5.90
2023-02-19T05:11:35.517Z,5.46
2023-02-19T05:14:02.237Z,5.78
2023-02-19T05:16:28.924Z,5.82
2023-02-19T05:18:58.755Z,5.45
2023-02-19T05:21:28.439Z,5.94
2023-02-19T05:23:55.529Z,5.83
2023-02-19T05:26:22.798Z,5.76
2023-02-19T05:28:53.099Z,5.71
2023-02-19T05:31:20.113Z,5.71
2023-02-19T05:33:46.912Z,6.18
2023-02-19T05:36:13.782Z,6.03
2023-02-19T05:38:40.947Z,6.45
2023-02-19T05:41:18.292Z,6.81
2023-02-19T05:43:45.990Z,6.81
2023-02-19T05:46:13.945Z,6.78
2023-02-19T05:48:41.871Z,6.68
2023-02-19T05:51:13.320Z,6.61
2023-02-19T05:53:40.153Z,6.87
2023-02-19T05:56:35.894Z,7.01
2023-02-19T05:59:17.490Z,6.79
2023-02-19T06:01:44.517Z,6.93
2023-02-19T06:04:11.419Z,6.36
2023-02-19T06:06:38.217Z,6.77
2023-02-19T06:09:05.338Z,6.98
2023-02-19T06:11:32.142Z,7.30
2023-02-19T06:13:59.336Z,7.21
2023-02-19T06:16:27.613Z,7.31
2023-02-19T06:18:57.097Z,7.71
2023-02-19T06:21:28.910Z,7.64
2023-02-19T06:23:55.635Z,7.25
2023-02-19T06:26:23.787Z,7.22
2023-02-19T06:28:51.216Z,7.75
2023-02-19T06:31:18.838Z,7.77
2023-02-19T06:33:45.586Z,7.70
2023-02-19T06:36:16.181Z,7.82
2023-02-19T06:38:43.045Z,7.74
2023-02-19T06:41:10.526Z,8.11
2023-02-19T06:43:38.044Z,8.22
2023-02-19T06:46:06.255Z,8.21
2023-02-19T06:48:34.246Z,8.52
2023-02-19T06:51:01.981Z,8.19
2023-02-19T06:53:29.357Z,7.77
2023-02-19T06:56:00.251Z,8.15
2023-02-19T06:58:27.089Z,7.76
2023-02-19T07:00:53.814Z,8.45
2023-02-19T07:03:23.569Z,7.83
2023-02-19T07:05:53.011Z,7.94
2023-02-19T07:08:22.579Z,7.64
2023-02-19T07:10:56.102Z,7.71
2023-02-19T07:13:26.201Z,7.70
2023-02-19T07:15:57.833Z,7.63
2023-02-19T07:18:30.387Z,7.88
2023-02-19T07:21:12.368Z,7.45
2023-02-19T07:23:39.672Z,7.78
2023-02-19T07:26:12.622Z,7.69
2023-02-19T07:28:43.748Z,7.69
2023-02-19T07:31:11.661Z,7.76
2023-02-19T07:33:39.068Z,7.46
2023-02-19T07:36:28.809Z,7.43
2023-02-19T07:38:59.289Z,8.15
2023-02-19T07:41:26.328Z,7.78
2023-02-19T07:43:53.485Z,7.31
2023-02-19T07:46:20.616Z,7.37
2023-02-19T07:48:48.257Z,7.24
2023-02-19T07:51:16.223Z,7.25
2023-02-19T07:53:43.439Z,6.99
2023-02-19T07:56:12.385Z,6.94
2023-02-19T07:58:39.243Z,6.55
2023-02-19T08:01:10.295Z,6.51
2023-02-19T08:03:38.130Z,6.35
2023-02-19T08:06:05.247Z,6.75
2023-02-19T08:08:32.363Z,6.71
2023-02-19T08:11:03.529Z,6.48
2023-02-19T08:13:30.628Z,6.41
2023-02-19T08:16:36.711Z,6.68
2023-02-19T08:19:05.502Z,6.12
2023-02-19T08:21:34.302Z,5.80
2023-02-19T08:24:01.586Z,6.03
2023-02-19T08:26:28.427Z,5.90
2023-02-19T08:28:55.247Z,5.61
2023-02-19T08:31:24.992Z,5.82
2023-02-19T08:33:56.896Z,5.74
2023-02-19T08:36:24.133Z,5.58
2023-02-19T08:38:51.916Z,5.87
2023-02-19T08:41:19.006Z,5.66
2023-02-19T08:43:46.930Z,6.08
2023-02-19T08:46:13.673Z,5.88
2023-02-19T08:48:40.506Z,5.90
2023-02-19T08:51:10.440Z,6.25
2023-02-19T08:53:38.076Z,6.40
2023-02-19T08:56:12.834Z,6.21
2023-02-19T08:58:40.963Z,6.17
2023-02-19T09:01:12.090Z,5.62
2023-02-19T09:03:39.514Z,5.98
2023-02-19T09:06:16.357Z,6.15
2023-02-19T09:08:43.093Z,5.83
2023-02-19T09:11:10.388Z,6.34
2023-02-19T09:13:37.457Z,6.52
2023-02-19T09:16:05.612Z,5.82
2023-02-19T09:18:35.445Z,6.20
2023-02-19T09:21:06.317Z,5.66
2023-02-19T09:23:35.449Z,5.51
2023-02-19T09:26:02.417Z,5.83
2023-02-19T09:28:31.002Z,6.68
2023-02-19T09:30:57.839Z,6.05
2023-02-19T09:33:30.572Z,5.85
2023-02-19T09:36:00.116Z,5.64
2023-02-19T09:38:27.239Z,5.70
2023-02-19T09:40:57.532Z,5.76
2023-02-19T09:43:24.638Z,5.13
2023-02-19T09:46:04.798Z,4.72
2023-02-19T09:48:32.627Z,4.67
2023-02-19T09:50:59.770Z,4.96
2023-02-19T09:53:30.387Z,4.93
2023-02-19T09:55:57.098Z,4.49
2023-02-19T09:58:35.373Z,4.54
2023-02-19T10:01:06.282Z,4.73
2023-02-19T10:03:38.723Z,4.40
2023-02-19T10:06:09.429Z,4.50
2023-02-19T10:08:39.429Z,4.42
2023-02-19T10:11:06.154Z,4.29
2023-02-19T10:13:37.705Z,4.09
2023-02-19T10:16:05.960Z,3.98
2023-02-19T10:18:39.803Z,4.19
2023-02-19T10:21:07.581Z,3.61
2023-02-19T10:23:34.713Z,3.85
2023-02-19T10:26:02.152Z,4.04
2023-02-19T10:28:30.310Z,4.36
2023-02-19T10:30:59.449Z,4.50
2023-02-19T10:33:26.802Z,4.89
2023-02-19T10:36:05.505Z,5.98
2023-02-19T10:38:39.317Z,6.56
2023-02-19T10:41:19.579Z,6.44
2023-02-19T10:44:00.374Z,6.49
2023-02-19T10:46:31.937Z,6.04
2023-02-19T10:49:02.100Z,6.57
2023-02-19T10:51:32.248Z,6.00
2023-02-19T10:54:26.814Z,5.79
2023-02-19T10:56:53.611Z,5.93
2023-02-19T10:59:32.194Z,6.19
2023-02-19T11:02:03.494Z,5.80
2023-02-19T11:04:31.400Z,5.55
2023-02-19T11:07:10.489Z,6.21
2023-02-19T11:09:44.500Z,6.56
2023-02-19T11:12:13.259Z,6.20
2023-02-19T11:14:44.735Z,6.78
2023-02-19T11:17:49.848Z,6.51
2023-02-19T11:20:25.174Z,6.38
2023-02-19T11:22:52.352Z,6.52
2023-02-19T11:25:27.637Z,6.30
2023-02-19T11:28:17.045Z,6.15
2023-02-19T11:30:44.412Z,6.23
2023-02-19T11:33:43.994Z,6.44
2023-02-19T11:36:30.409Z,6.29
2023-02-19T11:38:58.786Z,5.96
2023-02-19T11:42:03.753Z,5.85
2023-02-19T11:44:49.353Z,6.01
2023-02-19T11:47:41.682Z,6.32
2023-02-19T11:50:49.921Z,5.50
2023-02-19T11:53:29.285Z,5.50
2023-02-19T11:56:23.817Z,5.10
2023-02-19T11:59:23.810Z,5.13
2023-02-19T12:02:24.594Z,5.35
2023-02-19T12:05:21.319Z,5.32
2023-02-19T12:08:09.317Z,5.05
2023-02-19T12:11:09.403Z,5.13
2023-02-19T12:13:57.920Z,5.28
2023-02-19T12:16:30.615Z,4.93
2023-02-19T12:19:00.340Z,5.21
2023-02-19T12:21:32.912Z,5.00
2023-02-19T12:24:32.565Z,5.27
2023-02-19T12:27:26.625Z,5.36
2023-02-19T12:30:09.223Z,5.52
2023-02-19T12:33:00.289Z,5.54
2023-02-19T12:35:52.582Z,5.34
2023-02-19T12:38:27.459Z,5.29
2023-02-19T12:41:07.190Z,5.16
2023-02-19T12:43:37.571Z,5.51
2023-02-19T12:46:12.806Z,5.51
2023-02-19T12:49:19.169Z,5.80
2023-02-19T12:51:52.828Z,5.87
2023-02-19T12:54:48.325Z,6.15
2023-02-19T12:57:24.273Z,5.78
2023-02-19T13:00:36.938Z,5.34
2023-02-19T13:03:25.735Z,5.38
2023-02-19T13:06:19.862Z,5.08
2023-02-19T13:09:06.341Z,5.11
2023-02-19T13:11:45.356Z,4.78
2023-02-19T13:14:42.109Z,4.67
2023-02-19T13:17:33.978Z,4.65
2023-02-19T13:20:14.385Z,4.13
2023-02-19T13:23:02.139Z,4.38
2023-02-19T13:25:59.624Z,4.23
2023-02-19T13:29:10.845Z,4.23
2023-02-19T13:32:20.767Z,4.53
2023-02-19T13:35:01.763Z,4.63
2023-02-19T13:37:29.932Z,3.85
2023-02-19T13:39:56.637Z,3.94
2023-02-19T13:42:34.536Z,4.09
2023-02-19T13:45:05.236Z,3.66
2023-02-19T13:48:09.510Z,3.43
2023-02-19T13:50:36.730Z,3.13
2023-02-19T13:53:42.434Z,2.73
2023-02-19T13:56:31.890Z,1.94
2023-02-19T13:59:15.529Z,1.63
2023-02-19T14:02:12.781Z,1.87
2023-02-19T14:04:47.604Z,1.97
2023-02-19T14:07:14.716Z,2.12
2023-02-19T14:09:41.305Z,2.04
2023-02-19T14:12:07.913Z,1.93
2023-02-19T14:14:53.536Z,1.81
2023-02-19T14:17:33.628Z,1.98
2023-02-19T14:20:09.890Z,1.85
2023-02-19T14:22:49.064Z,2.59
2023-02-19T14:25:36.828Z,3.82
2023-02-19T14:28:18.794Z,3.28
2023-02-19T14:31:02.893Z,3.09
2023-02-19T14:33:43.165Z,2.68
2023-02-19T14:36:33.369Z,1.89
2023-02-19T14:39:04.697Z,2.26
2023-02-19T14:41:33.159Z,2.12
2023-02-19T14:44:00.297Z,2.37
2023-02-19T14:46:37.865Z,2.64
2023-02-19T14:49:24.367Z,2.79
2023-02-19T14:52:01.337Z,2.99
2023-02-19T14:54:56.995Z,3.03
2023-02-19T14:57:26.666Z,3.07
2023-02-19T14:59:56.594Z,3.12
2023-02-19T15:02:27.449Z,3.85
2023-02-19T15:05:02.102Z,3.81
2023-02-19T15:07:31.601Z,3.78
2023-02-19T15:10:05.667Z,3.69
2023-02-19T15:12:59.338Z,3.99
2023-02-19T15:15:28.023Z,3.48
2023-02-19T15:17:55.402Z,3.54
2023-02-19T15:20:45.337Z,3.67
2023-02-19T15:23:17.049Z,3.81
2023-02-19T15:25:45.450Z,3.77
2023-02-19T15:28:39.424Z,4.06
2023-02-19T15:31:06.644Z,3.73
2023-02-19T15:33:33.553Z,3.15
2023-02-19T15:36:03.106Z,1.58
2023-02-19T15:38:30.854Z,0.94
2023-02-19T15:40:57.901Z,1.06
2023-02-19T15:43:32.653Z,0.92
2023-02-19T15:46:16.365Z,0.95
2023-02-19T15:48:56.543Z,0.90
2023-02-19T15:52:00.474Z,0.91
2023-02-19T15:54:33.311Z,0.80
2023-02-19T15:57:03.378Z,0.90
2023-02-19T15:59:38.546Z,0.99
2023-02-19T16:02:06.221Z,0.95
2023-02-19T16:04:33.958Z,0.98
2023-02-19T16:07:01.872Z,1.05
2023-02-19T16:09:38.557Z,1.05
2023-02-19T16:12:25.584Z,1.06
2023-02-19T16:14:52.321Z,0.99
2023-02-19T16:17:21.857Z,0.99
2023-02-19T16:19:54.688Z,0.96
2023-02-19T16:22:23.720Z,1.02
2023-02-19T16:24:55.549Z,1.06
2023-02-19T16:27:36.166Z,1.04
2023-02-19T16:30:25.777Z,1.16
2023-02-19T16:33:29.590Z,0.92
2023-02-19T16:36:16.156Z,1.12
2023-02-19T16:39:06.836Z,1.02
2023-02-19T16:41:34.496Z,1.38
2023-02-19T16:44:01.218Z,1.26
2023-02-19T16:46:27.897Z,1.16
2023-02-19T16:48:57.254Z,1.00
2023-02-19T16:51:25.328Z,1.18
2023-02-19T16:53:52.466Z,1.19
2023-02-19T16:56:19.954Z,1.20
2023-02-19T16:58:46.791Z,1.00
2023-02-19T17:01:13.915Z,0.98
2023-02-19T17:03:41.155Z,1.00
2023-02-19T17:06:07.860Z,1.10
2023-02-19T17:08:52.130Z,0.92
2023-02-19T17:11:18.923Z,1.01
2023-02-19T17:13:46.421Z,1.20
2023-02-19T17:16:20.885Z,1.19
2023-02-19T17:18:47.651Z,1.21
2023-02-19T17:21:28.905Z,1.34
2023-02-19T17:23:56.145Z,1.04
2023-02-19T17:26:27.725Z,1.21
2023-02-19T17:29:17.786Z,1.20
2023-02-19T17:31:44.918Z,1.30
2023-02-19T17:34:12.607Z,1.40
2023-02-19T17:36:43.496Z,1.31
2023-02-19T17:39:12.942Z,1.20
2023-02-19T17:41:40.426Z,1.36
2023-02-19T17:44:09.042Z,1.42
2023-02-19T17:46:35.785Z,1.36
2023-02-19T17:49:02.533Z,1.23
2023-02-19T17:51:29.592Z,1.08
2023-02-19T17:53:57.016Z,1.14
2023-02-19T17:56:25.053Z,1.29
2023-02-19T17:58:52.068Z,1.26
2023-02-19T18:01:18.848Z,1.47
2023-02-19T18:03:46.365Z,1.28
2023-02-19T18:06:15.962Z,1.27
2023-02-19T18:08:50.377Z,1.24
2023-02-19T18:11:20.087Z,1.22
2023-02-19T18:13:50.727Z,1.37
2023-02-19T18:16:17.923Z,1.34
2023-02-19T18:18:47.772Z,1.25
2023-02-19T18:21:14.952Z,1.35
2023-02-19T18:23:42.552Z,1.47
2023-02-19T18:26:10.114Z,1.60
2023-02-19T18:28:41.998Z,1.59
2023-02-19T18:31:08.818Z,1.53
2023-02-19T18:33:35.958Z,1.51
2023-02-19T18:36:03.168Z,1.57
2023-02-19T18:38:32.694Z,1.44
2023-02-19T18:41:02.258Z,1.59
2023-02-19T18:43:29.423Z,1.60
2023-02-19T18:45:59.890Z,1.38
2023-02-19T18:48:27.089Z,1.44
2023-02-19T18:50:55.213Z,1.44
2023-02-19T18:53:22.616Z,1.44
2023-02-19T18:55:49.894Z,1.35
2023-02-19T18:58:17.410Z,1.34
2023-02-19T19:00:44.269Z,1.51
2023-02-19T19:03:11.018Z,1.52
2023-02-19T19:05:41.239Z,1.62
2023-02-19T19:08:07.985Z,1.89
2023-02-19T19:10:35.117Z,1.84
2023-02-19T19:13:03.626Z,1.99
2023-02-19T19:15:30.772Z,1.82
2023-02-19T19:18:02.736Z,2.04
2023-02-19T19:20:30.905Z,2.05
2023-02-19T19:22:58.001Z,2.10
2023-02-19T19:25:28.242Z,2.60
2023-02-19T19:27:55.760Z,2.31
2023-02-19T19:30:22.545Z,2.24
2023-02-19T19:32:49.702Z,1.87
2023-02-19T19:35:19.906Z,1.82
2023-02-19T19:37:46.595Z,1.67
2023-02-19T19:40:15.689Z,1.32
2023-02-19T19:42:44.503Z,1.27
2023-02-19T19:45:12.863Z,1.40
2023-02-19T19:47:39.760Z,1.23
2023-02-19T19:50:07.794Z,1.67
2023-02-19T19:52:37.361Z,1.08
2023-02-19T19:55:04.446Z,0.96
2023-02-19T19:57:32.545Z,1.06
2023-02-19T20:00:02.168Z,1.27
2023-02-19T20:02:29.277Z,1.29
2023-02-19T20:04:56.156Z,1.45
2023-02-19T20:07:22.930Z,1.52
2023-02-19T20:09:49.707Z,1.37
2023-02-19T20:12:17.088Z,1.45
2023-02-19T20:14:48.307Z,1.64
2023-02-19T20:17:15.107Z,1.39
2023-02-19T20:19:42.206Z,1.55
2023-02-19T20:22:11.654Z,1.53
2023-02-19T20:24:39.684Z,1.65
2023-02-19T20:27:06.367Z,1.64
2023-02-19T20:29:33.873Z,1.63
2023-02-19T20:32:00.746Z,1.54
2023-02-19T20:34:28.051Z,1.47
2023-02-19T20:36:54.880Z,1.76
2023-02-19T20:39:23.101Z,1.42
2023-02-19T20:41:50.931Z,1.67
2023-02-19T20:44:18.195Z,1.77
2023-02-19T20:46:45.930Z,1.88
2023-02-19T20:49:13.816Z,1.80
2023-02-19T20:51:44.865Z,1.64
2023-02-19T20:54:11.611Z,1.64
2023-02-19T20:56:43.295Z,1.64
2023-02-19T20:59:10.388Z,1.57
2023-02-19T21:01:38.779Z,1.82
2023-02-19T21:04:05.618Z,1.78
2023-02-19T21:06:33.615Z,1.87
2023-02-19T21:09:00.482Z,1.76
2023-02-19T21:11:27.302Z,1.69
2023-02-19T21:13:54.736Z,1.68
2023-02-19T21:16:21.912Z,1.65
2023-02-19T21:18:49.713Z,1.61
2023-02-19T21:21:20.313Z,1.68
2023-02-19T21:23:48.381Z,1.63
2023-02-19T21:26:15.086Z,1.78
2023-02-19T21:28:42.468Z,1.51
2023-02-19T21:31:09.753Z,1.45
2023-02-19T21:33:36.479Z,1.59
2023-02-19T21:36:04.212Z,1.62
2023-02-19T21:38:33.716Z,1.65
2023-02-19T21:41:07.173Z,1.70
2023-02-19T21:43:33.851Z,1.85
2023-02-19T21:46:03.780Z,1.97
2023-02-19T21:48:30.821Z,1.94
2023-02-19T21:50:57.716Z,1.86
2023-02-19T21:53:24.392Z,1.99
2023-02-19T21:55:58.731Z,2.04
2023-02-19T21:58:26.568Z,1.97
2023-02-19T22:00:53.419Z,2.06
2023-02-19T22:03:20.466Z,2.16
2023-02-19T22:05:47.417Z,2.14
2023-02-19T22:08:14.348Z,2.12
2023-02-19T22:10:41.081Z,1.93
2023-02-19T22:13:08.231Z,1.89
2023-02-19T22:15:36.014Z,2.11
2023-02-19T22:18:02.697Z,2.08
2023-02-19T22:20:29.599Z,2.21
2023-02-19T22:22:57.583Z,2.03
2023-02-19T22:25:24.298Z,1.86
2023-02-19T22:27:51.690Z,1.91
2023-02-19T22:30:18.610Z,1.93
2023-02-19T22:32:46.742Z,1.84
2023-02-19T22:35:15.762Z,1.76
2023-02-19T22:37:42.885Z,1.94
2023-02-19T22:40:22.578Z,1.71
2023-02-19T22:42:49.251Z,2.11
2023-02-19T22:45:16.100Z,2.13
2023-02-19T22:47:42.846Z,2.02
2023-02-19T22:50:19.677Z,1.96
2023-02-19T22:52:46.625Z,1.86
2023-02-19T22:55:13.386Z,2.03
2023-02-19T22:57:40.110Z,1.93
2023-02-19T23:00:15.283Z,1.94
2023-02-19T23:02:41.995Z,1.97
2023-02-19T23:05:09.037Z,2.05
2023-02-19T23:07:36.928Z,2.13
2023-02-19T23:10:05.823Z,2.11
2023-02-19T23:12:36.180Z,2.28
2023-02-19T23:15:05.842Z,2.35
2023-02-19T23:17:33.834Z,2.44
2023-02-19T23:20:00.908Z,2.75
2023-02-19T23:22:28.576Z,2.78
2023-02-19T23:24:55.949Z,2.68
2023-02-19T23:27:22.727Z,2.79
2023-02-19T23:29:49.475Z,3.08
2023-02-19T23:32:16.159Z,3.01
2023-02-19T23:34:42.858Z,2.99
2023-02-19T23:37:10.013Z,3.42
2023-02-19T23:39:37.226Z,3.39
2023-02-19T23:42:05.185Z,3.02
2023-02-19T23:44:33.613Z,3.46
2023-02-19T23:47:00.341Z,3.44
2023-02-19T23:49:28.509Z,3.32
2023-02-19T23:51:55.549Z,3.22
2023-02-19T23:54:24.991Z,3.23
2023-02-19T23:56:52.938Z,3.08
2023-02-19T23:59:19.664Z,3.04
